createdAt,value
2018-06-09T00:03:10.337Z,7.10
2018-06-09T00:08:40.441Z,8.80
2018-06-09T00:14:09.696Z,5.97
2018-06-09T00:19:39.364Z,6.65
2018-06-09T00:25:08.633Z,12.30
2018-06-09T00:30:37.913Z,6.08
2018-06-09T00:36:07.187Z,5.67
2018-06-09T00:41:36.410Z,7.83
2018-06-09T00:47:05.707Z,6.85
2018-06-09T00:52:34.895Z,6.12
2018-06-09T00:58:04.149Z,4.60
2018-06-09T01:03:33.395Z,7.22
2018-06-09T01:09:03.721Z,12.28
2018-06-09T01:14:32.933Z,7.37
2018-06-09T01:20:02.234Z,5.40
2018-06-09T01:25:31.502Z,5.30
2018-06-09T01:31:01.085Z,7.92
2018-06-09T01:36:30.506Z,6.25
2018-06-09T01:41:59.523Z,4.75
2018-06-09T01:47:28.813Z,5.45
2018-06-09T01:52:58.079Z,12.30
2018-06-09T01:58:27.336Z,6.58
2018-06-09T02:03:56.537Z,6.30
2018-06-09T02:09:25.744Z,4.83
2018-06-09T02:14:54.938Z,7.47
2018-06-09T02:20:25.115Z,5.30
2018-06-09T02:25:54.404Z,7.25
2018-06-09T02:31:23.664Z,7.08
2018-06-09T02:36:52.912Z,7.15
2018-06-09T02:42:22.121Z,5.70
2018-06-09T02:47:51.861Z,4.97
2018-06-09T02:53:21.159Z,9.73
2018-06-09T02:58:50.491Z,8.25
2018-06-09T03:04:19.917Z,9.20
2018-06-09T03:09:49.339Z,5.55
2018-06-09T03:15:18.563Z,8.65
2018-06-09T03:20:47.917Z,9.80
2018-06-09T03:26:17.209Z,8.88
2018-06-09T03:31:46.725Z,7.87
2018-06-09T03:37:16.220Z,6.55
2018-06-09T03:42:45.577Z,9.28
2018-06-09T03:48:15.021Z,7.50
2018-06-09T03:53:44.332Z,8.83
2018-06-09T03:59:13.710Z,8.80
2018-06-09T04:04:43.152Z,7.58
2018-06-09T04:10:12.518Z,9.23
2018-06-09T04:15:52.277Z,7.28
2018-06-09T04:21:21.525Z,10.18
2018-06-09T04:26:50.934Z,7.05
2018-06-09T04:32:20.376Z,9.33
2018-06-09T04:37:49.728Z,7.72
2018-06-09T04:43:19.009Z,8.48
2018-06-09T04:48:49.564Z,7.95
2018-06-09T04:54:19.063Z,7.65
2018-06-09T04:59:48.372Z,11.43
2018-06-09T05:05:17.942Z,9.45
2018-06-09T05:10:47.250Z,9.40
2018-06-09T05:16:16.663Z,13.20
2018-06-09T05:21:46.556Z,6.85
2018-06-09T05:27:16.011Z,6.70
2018-06-09T05:32:45.575Z,8.68
2018-06-09T05:38:15.055Z,6.45
2018-06-09T05:43:44.504Z,7.17
2018-06-09T05:49:13.954Z,4.92
2018-06-09T05:54:43.372Z,5.83
2018-06-09T06:00:13.058Z,6.15
2018-06-09T06:05:42.721Z,5.67
2018-06-09T06:11:12.975Z,5.72
2018-06-09T06:16:42.362Z,5.83
2018-06-09T06:22:11.938Z,5.35
2018-06-09T06:27:42.891Z,6.72
2018-06-09T06:33:12.769Z,5.67
2018-06-09T06:38:42.219Z,7.20
2018-06-09T06:44:11.583Z,5.62
2018-06-09T06:49:40.997Z,9.83
2018-06-09T06:55:11.021Z,8.00
2018-06-09T07:00:40.461Z,7.85
2018-06-09T07:06:09.950Z,8.65
2018-06-09T07:11:41.131Z,6.37
2018-06-09T07:17:10.464Z,8.75
2018-06-09T07:22:40.299Z,6.58
2018-06-09T07:28:12.130Z,6.75
2018-06-09T07:33:42.790Z,8.40
2018-06-09T07:39:12.454Z,9.43
2018-06-09T07:44:41.783Z,9.08
2018-06-09T07:50:11.188Z,7.87
2018-06-09T07:55:41.525Z,9.13
2018-06-09T08:01:10.842Z,11.53
2018-06-09T08:06:40.235Z,9.60
2018-06-09T08:12:09.465Z,11.85
2018-06-09T08:17:38.818Z,11.63
2018-06-09T08:23:09.079Z,11.20
2018-06-09T08:28:38.356Z,11.55
2018-06-09T08:34:07.684Z,8.63
2018-06-09T08:39:36.920Z,10.60
2018-06-09T08:45:06.240Z,9.65
2018-06-09T08:50:35.902Z,9.50
2018-06-09T08:56:05.861Z,10.78
2018-06-09T09:01:35.146Z,11.95
2018-06-09T09:07:04.609Z,9.00
2018-06-09T09:12:33.846Z,11.75
2018-06-09T09:18:04.079Z,10.65
2018-06-09T09:23:33.349Z,14.83
2018-06-09T09:29:02.674Z,11.65
2018-06-09T09:34:32.003Z,8.78
2018-06-09T09:40:01.286Z,9.60
2018-06-09T09:45:30.626Z,11.55
2018-06-09T09:50:59.860Z,14.87
2018-06-09T09:56:29.160Z,13.13
2018-06-09T10:01:58.392Z,7.97
2018-06-09T10:07:27.627Z,12.40
2018-06-09T10:12:57.047Z,7.60
2018-06-09T10:18:26.393Z,10.25
2018-06-09T10:23:55.740Z,11.30
2018-06-09T10:29:25.964Z,11.53
2018-06-09T10:34:55.218Z,9.73
2018-06-09T10:40:24.514Z,11.95
2018-06-09T10:45:53.778Z,46.95
2018-06-09T10:51:23.047Z,20.95
2018-06-09T10:56:52.459Z,14.45
2018-06-09T11:02:21.736Z,11.43
2018-06-09T11:07:51.013Z,13.60
2018-06-09T11:13:23.174Z,10.60
2018-06-09T11:18:52.881Z,9.45
2018-06-09T11:24:24.668Z,10.15
2018-06-09T11:29:54.066Z,11.00
2018-06-09T11:35:25.449Z,9.68
2018-06-09T11:41:02.343Z,9.75
2018-06-09T11:46:32.571Z,6.83
2018-06-09T11:52:01.936Z,7.47
2018-06-09T11:57:31.243Z,11.35
2018-06-09T12:03:00.812Z,12.07
2018-06-09T12:08:30.081Z,11.73
2018-06-09T12:13:59.282Z,8.15
2018-06-09T12:19:29.271Z,10.48
2018-06-09T12:24:59.904Z,10.08
2018-06-09T12:30:32.646Z,9.25
2018-06-09T12:36:02.354Z,8.38
2018-06-09T12:41:34.835Z,9.03
2018-06-09T12:47:06.196Z,6.58
2018-06-09T12:52:36.604Z,8.43
2018-06-09T12:58:05.910Z,8.13
2018-06-09T13:03:37.226Z,7.00
2018-06-09T13:09:12.667Z,8.38
2018-06-09T13:14:42.770Z,8.80
2018-06-09T13:20:12.753Z,7.83
2018-06-09T13:25:42.161Z,6.90
2018-06-09T13:31:12.249Z,9.58
2018-06-09T13:36:42.088Z,8.25
2018-06-09T13:42:13.993Z,6.97
2018-06-09T13:47:45.228Z,11.65
2018-06-09T13:53:14.666Z,6.75
2018-06-09T13:58:44.240Z,9.05
2018-06-09T14:04:13.816Z,7.83
2018-06-09T14:09:43.667Z,7.53
2018-06-09T14:15:13.198Z,12.13
2018-06-09T14:20:42.523Z,7.15
2018-06-09T14:26:11.903Z,11.45
2018-06-09T14:31:41.267Z,9.75
2018-06-09T14:37:10.822Z,8.43
2018-06-09T14:42:40.466Z,7.37
2018-06-09T14:48:09.863Z,7.83
2018-06-09T14:53:39.172Z,8.23
2018-06-09T14:59:11.191Z,9.93
2018-06-09T15:04:40.508Z,16.85
2018-06-09T15:10:11.897Z,12.20
2018-06-09T15:15:41.320Z,11.15
2018-06-09T15:21:10.769Z,11.12
2018-06-09T15:26:42.076Z,11.93
2018-06-09T15:32:13.609Z,13.13
2018-06-09T15:37:43.026Z,12.95
2018-06-09T15:43:12.693Z,8.60
2018-06-09T15:48:42.302Z,9.90
2018-06-09T15:54:11.728Z,8.70
2018-06-09T15:59:41.283Z,10.25
2018-06-09T16:05:18.060Z,6.15
2018-06-09T16:10:52.956Z,9.50
2018-06-09T16:16:24.432Z,10.45
2018-06-09T16:21:53.953Z,15.55
2018-06-09T16:27:25.322Z,12.10
2018-06-09T16:32:54.640Z,13.80
2018-06-09T16:38:23.852Z,13.40
2018-06-09T16:43:54.257Z,12.35
2018-06-09T16:49:23.532Z,8.65
2018-06-09T16:54:52.939Z,12.73
2018-06-09T17:00:23.269Z,16.07
2018-06-09T17:05:53.396Z,11.55
2018-06-09T17:11:22.974Z,11.35
2018-06-09T17:16:54.332Z,15.05
2018-06-09T17:22:23.826Z,12.47
2018-06-09T17:27:54.296Z,11.45
2018-06-09T17:33:23.727Z,11.28
2018-06-09T17:38:53.194Z,16.25
2018-06-09T17:44:22.465Z,9.90
2018-06-09T17:49:51.816Z,14.45
2018-06-09T17:55:26.339Z,10.38
2018-06-09T18:00:56.782Z,11.97
2018-06-09T18:06:27.409Z,13.20
2018-06-09T18:11:56.743Z,20.55
2018-06-09T18:17:36.260Z,10.45
2018-06-09T18:23:05.623Z,14.58
2018-06-09T18:28:34.997Z,12.00
2018-06-09T18:34:04.604Z,10.70
2018-06-09T18:39:33.964Z,10.93
2018-06-09T18:45:03.468Z,14.07
2018-06-09T18:50:32.823Z,13.80
2018-06-09T18:56:02.429Z,11.38
2018-06-09T19:01:40.683Z,15.08
2018-06-09T19:07:11.173Z,8.93
2018-06-09T19:12:40.750Z,9.60
2018-06-09T19:18:10.478Z,22.80
2018-06-09T19:23:40.425Z,15.05
2018-06-09T19:29:11.171Z,15.15
2018-06-09T19:34:40.565Z,27.73
2018-06-09T19:40:09.833Z,17.90
2018-06-09T19:45:40.301Z,17.10
2018-06-09T19:51:09.781Z,13.55
2018-06-09T19:56:39.221Z,18.73
2018-06-09T20:02:10.016Z,45.65
2018-06-09T20:07:41.473Z,30.27
2018-06-09T20:13:11.021Z,22.37
2018-06-09T20:18:40.623Z,16.17
2018-06-09T20:24:10.505Z,20.92
2018-06-09T20:29:39.960Z,20.17
2018-06-09T20:35:11.259Z,22.25
2018-06-09T20:40:41.020Z,20.88
2018-06-09T20:46:12.611Z,17.20
2018-06-09T20:51:43.333Z,20.08
2018-06-09T20:57:13.035Z,19.57
2018-06-09T21:02:42.595Z,13.48
2018-06-09T21:08:12.999Z,15.20
2018-06-09T21:13:42.621Z,14.68
2018-06-09T21:19:11.961Z,13.72
2018-06-09T21:24:48.544Z,15.08
2018-06-09T21:30:22.676Z,14.40
2018-06-09T21:36:02.877Z,13.00
2018-06-09T21:41:37.446Z,17.15
2018-06-09T21:47:06.869Z,16.85
2018-06-09T21:52:36.319Z,18.75
2018-06-09T21:58:05.840Z,21.75
2018-06-09T22:03:35.341Z,20.63
2018-06-09T22:09:07.238Z,19.15
2018-06-09T22:14:37.717Z,23.32
2018-06-09T22:20:07.279Z,21.57
2018-06-09T22:25:41.732Z,26.65
2018-06-09T22:31:11.034Z,30.77
2018-06-09T22:36:40.483Z,19.05
2018-06-09T22:42:09.849Z,26.45
2018-06-09T22:47:40.575Z,23.02
2018-06-09T22:53:10.099Z,33.13
2018-06-09T22:58:39.457Z,22.32
2018-06-09T23:04:08.714Z,30.27
2018-06-09T23:09:37.950Z,27.05
2018-06-09T23:15:07.148Z,29.67
2018-06-09T23:20:36.555Z,26.57
2018-06-09T23:26:05.747Z,31.40
2018-06-09T23:31:35.009Z,18.60
2018-06-09T23:37:04.208Z,22.82
2018-06-09T23:42:33.980Z,16.75
2018-06-09T23:48:04.211Z,22.02
2018-06-09T23:53:33.404Z,17.17
2018-06-09T23:59:02.637Z,20.70
